sensor_id;sensor_type;location;lat;lon;timestamp;P1;durP1;ratioP1;P2;durP2;ratioP2
5125;SDS011;2581;53.112;8.896;2022-07-12T00:01:28;1.70;;;1.60;;
5125;SDS011;2581;53.112;8.896;2022-07-12T00:03:54;1.43;;;1.43;;
5125;SDS011;2581;53.112;8.896;2022-07-12T00:06:20;1.33;;;1.33;;
5125;SDS011;2581;53.112;8.896;2022-07-12T00:08:45;2.50;;;1.73;;
5125;SDS011;2581;53.112;8.896;2022-07-12T00:11:11;1.80;;;1.70;;
5125;SDS011;2581;53.112;8.896;2022-07-12T00:13:37;1.37;;;1.27;;
5125;SDS011;2581;53.112;8.896;2022-07-12T00:16:02;1.50;;;1.43;;
5125;SDS011;2581;53.112;8.896;2022-07-12T00:18:28;1.47;;;1.37;;
5125;SDS011;2581;53.112;8.896;2022-07-12T00:20:54;1.87;;;1.77;;
5125;SDS011;2581;53.112;8.896;2022-07-12T00:23:20;1.63;;;1.53;;
5125;SDS011;2581;53.112;8.896;2022-07-12T00:25:45;1.43;;;1.33;;
5125;SDS011;2581;53.112;8.896;2022-07-12T00:28:11;1.70;;;1.60;;
5125;SDS011;2581;53.112;8.896;2022-07-12T00:30:37;1.87;;;1.77;;
5125;SDS011;2581;53.112;8.896;2022-07-12T00:33:03;2.33;;;1.93;;
5125;SDS011;2581;53.112;8.896;2022-07-12T00:35:28;1.57;;;1.47;;
5125;SDS011;2581;53.112;8.896;2022-07-12T00:37:54;2.30;;;1.50;;
5125;SDS011;2581;53.112;8.896;2022-07-12T00:40:20;1.70;;;1.60;;
5125;SDS011;2581;53.112;8.896;2022-07-12T00:42:45;2.03;;;1.83;;
5125;SDS011;2581;53.112;8.896;2022-07-12T00:45:11;5.77;;;1.77;;
5125;SDS011;2581;53.112;8.896;2022-07-12T00:47:38;2.37;;;2.10;;
5125;SDS011;2581;53.112;8.896;2022-07-12T00:50:19;2.73;;;1.60;;
5125;SDS011;2581;53.112;8.896;2022-07-12T00:52:47;1.60;;;1.50;;
5125;SDS011;2581;53.112;8.896;2022-07-12T00:55:14;1.90;;;1.80;;
5125;SDS011;2581;53.112;8.896;2022-07-12T00:57:42;1.33;;;1.30;;
5125;SDS011;2581;53.112;8.896;2022-07-12T01:00:13;2.10;;;1.90;;
5125;SDS011;2581;53.112;8.896;2022-07-12T01:02:41;1.30;;;1.30;;
5125;SDS011;2581;53.112;8.896;2022-07-12T01:05:08;1.37;;;1.37;;
5125;SDS011;2581;53.112;8.896;2022-07-12T01:07:35;1.70;;;1.60;;
5125;SDS011;2581;53.112;8.896;2022-07-12T01:10:02;1.53;;;1.43;;
5125;SDS011;2581;53.112;8.896;2022-07-12T01:12:30;1.47;;;1.37;;
5125;SDS011;2581;53.112;8.896;2022-07-12T01:14:55;1.73;;;1.70;;
5125;SDS011;2581;53.112;8.896;2022-07-12T01:17:22;1.53;;;1.43;;
5125;SDS011;2581;53.112;8.896;2022-07-12T01:19:49;1.30;;;1.30;;
5125;SDS011;2581;53.112;8.896;2022-07-12T01:22:20;5.30;;;1.77;;
5125;SDS011;2581;53.112;8.896;2022-07-12T01:24:52;6.00;;;1.90;;
5125;SDS011;2581;53.112;8.896;2022-07-12T01:27:18;3.13;;;1.47;;
5125;SDS011;2581;53.112;8.896;2022-07-12T01:29:44;1.47;;;1.37;;
5125;SDS011;2581;53.112;8.896;2022-07-12T01:32:10;1.80;;;1.70;;
5125;SDS011;2581;53.112;8.896;2022-07-12T01:34:55;1.80;;;1.50;;
5125;SDS011;2581;53.112;8.896;2022-07-12T01:37:25;1.33;;;1.33;;
5125;SDS011;2581;53.112;8.896;2022-07-12T01:39:55;1.27;;;1.27;;
5125;SDS011;2581;53.112;8.896;2022-07-12T01:42:22;1.30;;;1.30;;
5125;SDS011;2581;53.112;8.896;2022-07-12T01:44:50;1.77;;;1.67;;
5125;SDS011;2581;53.112;8.896;2022-07-12T01:47:18;1.27;;;1.27;;
5125;SDS011;2581;53.112;8.896;2022-07-12T01:49:44;1.77;;;1.67;;
5125;SDS011;2581;53.112;8.896;2022-07-12T01:52:10;4.40;;;1.77;;
5125;SDS011;2581;53.112;8.896;2022-07-12T01:54:37;2.27;;;2.17;;
5125;SDS011;2581;53.112;8.896;2022-07-12T01:57:03;1.80;;;1.70;;
5125;SDS011;2581;53.112;8.896;2022-07-12T01:59:30;2.40;;;2.30;;
5125;SDS011;2581;53.112;8.896;2022-07-12T02:01:56;2.33;;;2.23;;
5125;SDS011;2581;53.112;8.896;2022-07-12T02:04:22;2.90;;;2.80;;
5125;SDS011;2581;53.112;8.896;2022-07-12T02:06:48;3.63;;;3.33;;
5125;SDS011;2581;53.112;8.896;2022-07-12T02:09:14;3.17;;;3.07;;
5125;SDS011;2581;53.112;8.896;2022-07-12T02:11:41;3.30;;;3.10;;
5125;SDS011;2581;53.112;8.896;2022-07-12T02:14:07;3.00;;;2.90;;
5125;SDS011;2581;53.112;8.896;2022-07-12T02:16:33;3.80;;;3.60;;
5125;SDS011;2581;53.112;8.896;2022-07-12T02:18:59;3.10;;;3.00;;
5125;SDS011;2581;53.112;8.896;2022-07-12T02:21:25;3.07;;;2.97;;
5125;SDS011;2581;53.112;8.896;2022-07-12T02:23:51;3.37;;;3.17;;
5125;SDS011;2581;53.112;8.896;2022-07-12T02:26:17;3.83;;;3.63;;
5125;SDS011;2581;53.112;8.896;2022-07-12T02:28:42;3.23;;;3.10;;
5125;SDS011;2581;53.112;8.896;2022-07-12T02:31:08;4.47;;;4.20;;
5125;SDS011;2581;53.112;8.896;2022-07-12T02:33:34;4.30;;;3.90;;
5125;SDS011;2581;53.112;8.896;2022-07-12T02:36:00;4.23;;;4.03;;
5125;SDS011;2581;53.112;8.896;2022-07-12T02:38:27;3.80;;;3.60;;
5125;SDS011;2581;53.112;8.896;2022-07-12T02:40:53;3.30;;;3.10;;
5125;SDS011;2581;53.112;8.896;2022-07-12T02:43:28;3.60;;;3.40;;
5125;SDS011;2581;53.112;8.896;2022-07-12T02:45:55;3.70;;;3.50;;
5125;SDS011;2581;53.112;8.896;2022-07-12T02:48:31;4.10;;;3.67;;
5125;SDS011;2581;53.112;8.896;2022-07-12T02:50:58;3.47;;;3.27;;
5125;SDS011;2581;53.112;8.896;2022-07-12T02:53:24;2.83;;;2.70;;
5125;SDS011;2581;53.112;8.896;2022-07-12T02:55:50;2.90;;;2.70;;
5125;SDS011;2581;53.112;8.896;2022-07-12T02:58:15;2.63;;;2.37;;
5125;SDS011;2581;53.112;8.896;2022-07-12T03:00:41;2.20;;;2.10;;
5125;SDS011;2581;53.112;8.896;2022-07-12T03:03:09;2.17;;;2.00;;
5125;SDS011;2581;53.112;8.896;2022-07-12T03:05:35;2.37;;;2.17;;
5125;SDS011;2581;53.112;8.896;2022-07-12T03:08:04;2.17;;;2.07;;
5125;SDS011;2581;53.112;8.896;2022-07-12T03:10:32;1.87;;;1.77;;
5125;SDS011;2581;53.112;8.896;2022-07-12T03:12:58;2.00;;;1.83;;
5125;SDS011;2581;53.112;8.896;2022-07-12T03:15:24;4.33;;;1.70;;
5125;SDS011;2581;53.112;8.896;2022-07-12T03:17:50;1.80;;;1.70;;
5125;SDS011;2581;53.112;8.896;2022-07-12T03:20:15;1.33;;;1.33;;
5125;SDS011;2581;53.112;8.896;2022-07-12T03:22:41;1.50;;;1.40;;
5125;SDS011;2581;53.112;8.896;2022-07-12T03:25:08;1.60;;;1.50;;
5125;SDS011;2581;53.112;8.896;2022-07-12T03:27:34;1.90;;;1.80;;
5125;SDS011;2581;53.112;8.896;2022-07-12T03:30:00;1.10;;;1.10;;
5125;SDS011;2581;53.112;8.896;2022-07-12T03:32:26;1.10;;;1.10;;
5125;SDS011;2581;53.112;8.896;2022-07-12T03:34:52;1.20;;;0.90;;
5125;SDS011;2581;53.112;8.896;2022-07-12T03:37:18;1.20;;;1.10;;
5125;SDS011;2581;53.112;8.896;2022-07-12T03:39:43;1.43;;;1.20;;
5125;SDS011;2581;53.112;8.896;2022-07-12T03:42:09;1.40;;;1.30;;
5125;SDS011;2581;53.112;8.896;2022-07-12T03:44:37;1.50;;;1.40;;
5125;SDS011;2581;53.112;8.896;2022-07-12T03:47:03;2.60;;;1.47;;
5125;SDS011;2581;53.112;8.896;2022-07-12T03:49:29;1.20;;;1.20;;
5125;SDS011;2581;53.112;8.896;2022-07-12T03:51:54;1.00;;;1.00;;
5125;SDS011;2581;53.112;8.896;2022-07-12T03:54:20;1.87;;;1.30;;
5125;SDS011;2581;53.112;8.896;2022-07-12T03:56:46;1.40;;;1.40;;
5125;SDS011;2581;53.112;8.896;2022-07-12T03:59:30;1.90;;;1.40;;
5125;SDS011;2581;53.112;8.896;2022-07-12T04:01:56;1.43;;;1.40;;
5125;SDS011;2581;53.112;8.896;2022-07-12T04:04:21;1.60;;;1.50;;
5125;SDS011;2581;53.112;8.896;2022-07-12T04:06:47;4.10;;;1.90;;
5125;SDS011;2581;53.112;8.896;2022-07-12T04:09:13;19.43;;;9.63;;
5125;SDS011;2581;53.112;8.896;2022-07-12T04:11:39;2.80;;;2.30;;
5125;SDS011;2581;53.112;8.896;2022-07-12T04:14:05;2.03;;;1.40;;
5125;SDS011;2581;53.112;8.896;2022-07-12T04:16:31;1.50;;;1.33;;
5125;SDS011;2581;53.112;8.896;2022-07-12T04:18:56;1.53;;;1.53;;
5125;SDS011;2581;53.112;8.896;2022-07-12T04:21:22;1.80;;;1.20;;
5125;SDS011;2581;53.112;8.896;2022-07-12T04:23:48;1.50;;;1.40;;
5125;SDS011;2581;53.112;8.896;2022-07-12T04:26:14;1.40;;;1.30;;
5125;SDS011;2581;53.112;8.896;2022-07-12T04:28:39;1.57;;;1.30;;
5125;SDS011;2581;53.112;8.896;2022-07-12T04:31:05;1.93;;;1.60;;
5125;SDS011;2581;53.112;8.896;2022-07-12T04:33:34;1.97;;;1.30;;
5125;SDS011;2581;53.112;8.896;2022-07-12T04:36:00;1.20;;;1.20;;
5125;SDS011;2581;53.112;8.896;2022-07-12T04:38:26;1.77;;;1.60;;
5125;SDS011;2581;53.112;8.896;2022-07-12T04:40:52;1.97;;;1.27;;
5125;SDS011;2581;53.112;8.896;2022-07-12T04:43:17;1.30;;;1.30;;
5125;SDS011;2581;53.112;8.896;2022-07-12T04:45:43;1.57;;;1.47;;
5125;SDS011;2581;53.112;8.896;2022-07-12T04:48:09;1.50;;;1.40;;
5125;SDS011;2581;53.112;8.896;2022-07-12T04:50:35;1.27;;;1.27;;
5125;SDS011;2581;53.112;8.896;2022-07-12T04:53:01;2.10;;;1.03;;
5125;SDS011;2581;53.112;8.896;2022-07-12T04:55:27;1.53;;;1.50;;
5125;SDS011;2581;53.112;8.896;2022-07-12T04:57:53;0.90;;;0.90;;
5125;SDS011;2581;53.112;8.896;2022-07-12T05:00:18;2.10;;;1.30;;
5125;SDS011;2581;53.112;8.896;2022-07-12T05:02:44;1.33;;;1.07;;
5125;SDS011;2581;53.112;8.896;2022-07-12T05:05:09;1.10;;;1.10;;
5125;SDS011;2581;53.112;8.896;2022-07-12T05:07:35;1.30;;;1.20;;
5125;SDS011;2581;53.112;8.896;2022-07-12T05:10:01;1.50;;;1.40;;
5125;SDS011;2581;53.112;8.896;2022-07-12T05:12:27;1.47;;;1.47;;
5125;SDS011;2581;53.112;8.896;2022-07-12T05:14:53;1.20;;;1.20;;
5125;SDS011;2581;53.112;8.896;2022-07-12T05:17:18;1.73;;;1.63;;
5125;SDS011;2581;53.112;8.896;2022-07-12T05:19:44;1.50;;;1.40;;
5125;SDS011;2581;53.112;8.896;2022-07-12T05:22:09;2.03;;;1.87;;
5125;SDS011;2581;53.112;8.896;2022-07-12T05:24:35;1.40;;;1.30;;
5125;SDS011;2581;53.112;8.896;2022-07-12T05:27:01;2.10;;;1.63;;
5125;SDS011;2581;53.112;8.896;2022-07-12T05:29:26;1.40;;;1.40;;
5125;SDS011;2581;53.112;8.896;2022-07-12T05:31:55;1.70;;;1.60;;
5125;SDS011;2581;53.112;8.896;2022-07-12T05:34:22;1.50;;;1.40;;
5125;SDS011;2581;53.112;8.896;2022-07-12T05:36:48;1.33;;;1.00;;
5125;SDS011;2581;53.112;8.896;2022-07-12T05:39:13;2.30;;;1.50;;
5125;SDS011;2581;53.112;8.896;2022-07-12T05:41:39;1.67;;;1.20;;
5125;SDS011;2581;53.112;8.896;2022-07-12T05:44:05;1.23;;;1.13;;
5125;SDS011;2581;53.112;8.896;2022-07-12T05:46:30;1.63;;;1.53;;
5125;SDS011;2581;53.112;8.896;2022-07-12T05:48:57;1.47;;;1.30;;
5125;SDS011;2581;53.112;8.896;2022-07-12T05:51:22;1.97;;;1.87;;
5125;SDS011;2581;53.112;8.896;2022-07-12T05:54:06;1.50;;;1.40;;
5125;SDS011;2581;53.112;8.896;2022-07-12T05:56:32;2.73;;;1.30;;
5125;SDS011;2581;53.112;8.896;2022-07-12T05:58:58;2.73;;;1.27;;
5125;SDS011;2581;53.112;8.896;2022-07-12T06:01:24;1.50;;;1.40;;
5125;SDS011;2581;53.112;8.896;2022-07-12T06:03:50;1.63;;;1.53;;
5125;SDS011;2581;53.112;8.896;2022-07-12T06:06:16;1.10;;;1.10;;
5125;SDS011;2581;53.112;8.896;2022-07-12T06:08:41;1.43;;;1.43;;
5125;SDS011;2581;53.112;8.896;2022-07-12T06:11:07;1.63;;;1.60;;
5125;SDS011;2581;53.112;8.896;2022-07-12T06:13:33;1.60;;;1.50;;
5125;SDS011;2581;53.112;8.896;2022-07-12T06:15:58;1.80;;;1.57;;
5125;SDS011;2581;53.112;8.896;2022-07-12T06:18:24;1.70;;;1.60;;
5125;SDS011;2581;53.112;8.896;2022-07-12T06:20:50;1.90;;;1.70;;
5125;SDS011;2581;53.112;8.896;2022-07-12T06:23:16;1.40;;;1.40;;
5125;SDS011;2581;53.112;8.896;2022-07-12T06:25:43;1.57;;;1.40;;
5125;SDS011;2581;53.112;8.896;2022-07-12T06:28:10;1.90;;;1.80;;
5125;SDS011;2581;53.112;8.896;2022-07-12T06:30:37;2.33;;;2.10;;
5125;SDS011;2581;53.112;8.896;2022-07-12T06:33:02;2.03;;;1.83;;
5125;SDS011;2581;53.112;8.896;2022-07-12T06:35:28;1.90;;;1.80;;
5125;SDS011;2581;53.112;8.896;2022-07-12T06:37:54;1.50;;;1.40;;
5125;SDS011;2581;53.112;8.896;2022-07-12T06:40:20;1.60;;;1.50;;
5125;SDS011;2581;53.112;8.896;2022-07-12T06:42:45;3.23;;;1.57;;
5125;SDS011;2581;53.112;8.896;2022-07-12T06:45:11;2.20;;;2.10;;
5125;SDS011;2581;53.112;8.896;2022-07-12T06:47:36;2.40;;;2.20;;
5125;SDS011;2581;53.112;8.896;2022-07-12T06:50:03;2.40;;;2.30;;
5125;SDS011;2581;53.112;8.896;2022-07-12T06:52:29;2.17;;;1.80;;
5125;SDS011;2581;53.112;8.896;2022-07-12T06:54:55;2.50;;;2.30;;
5125;SDS011;2581;53.112;8.896;2022-07-12T06:57:21;3.13;;;2.30;;
5125;SDS011;2581;53.112;8.896;2022-07-12T06:59:47;2.07;;;1.97;;
5125;SDS011;2581;53.112;8.896;2022-07-12T07:02:13;2.50;;;2.40;;
5125;SDS011;2581;53.112;8.896;2022-07-12T07:04:39;2.70;;;2.50;;
5125;SDS011;2581;53.112;8.896;2022-07-12T07:07:05;2.80;;;2.70;;
5125;SDS011;2581;53.112;8.896;2022-07-12T07:09:30;3.27;;;3.07;;
5125;SDS011;2581;53.112;8.896;2022-07-12T07:11:56;3.10;;;2.90;;
5125;SDS011;2581;53.112;8.896;2022-07-12T07:14:22;3.00;;;2.80;;
5125;SDS011;2581;53.112;8.896;2022-07-12T07:16:47;2.63;;;2.47;;
5125;SDS011;2581;53.112;8.896;2022-07-12T07:19:13;3.00;;;2.90;;
5125;SDS011;2581;53.112;8.896;2022-07-12T07:21:38;3.47;;;3.27;;
5125;SDS011;2581;53.112;8.896;2022-07-12T07:24:04;2.37;;;2.27;;
5125;SDS011;2581;53.112;8.896;2022-07-12T07:26:30;3.70;;;3.40;;
5125;SDS011;2581;53.112;8.896;2022-07-12T07:28:57;3.30;;;3.10;;
5125;SDS011;2581;53.112;8.896;2022-07-12T07:31:42;2.43;;;2.33;;
5125;SDS011;2581;53.112;8.896;2022-07-12T07:34:07;3.13;;;2.93;;
5125;SDS011;2581;53.112;8.896;2022-07-12T07:36:33;2.83;;;2.63;;
5125;SDS011;2581;53.112;8.896;2022-07-12T07:38:59;2.70;;;2.50;;
5125;SDS011;2581;53.112;8.896;2022-07-12T07:41:24;2.97;;;2.77;;
5125;SDS011;2581;53.112;8.896;2022-07-12T07:43:50;4.93;;;3.87;;
5125;SDS011;2581;53.112;8.896;2022-07-12T07:46:16;3.40;;;3.20;;
5125;SDS011;2581;53.112;8.896;2022-07-12T07:48:42;2.87;;;2.67;;
5125;SDS011;2581;53.112;8.896;2022-07-12T07:51:07;3.70;;;3.50;;
5125;SDS011;2581;53.112;8.896;2022-07-12T07:53:33;3.30;;;3.10;;
5125;SDS011;2581;53.112;8.896;2022-07-12T07:55:59;3.30;;;3.10;;
5125;SDS011;2581;53.112;8.896;2022-07-12T07:58:25;3.63;;;3.47;;
5125;SDS011;2581;53.112;8.896;2022-07-12T08:00:51;3.27;;;3.07;;
5125;SDS011;2581;53.112;8.896;2022-07-12T08:03:18;4.20;;;3.90;;
5125;SDS011;2581;53.112;8.896;2022-07-12T08:05:44;4.00;;;3.80;;
5125;SDS011;2581;53.112;8.896;2022-07-12T08:08:10;4.10;;;3.73;;
5125;SDS011;2581;53.112;8.896;2022-07-12T08:10:35;3.70;;;3.50;;
5125;SDS011;2581;53.112;8.896;2022-07-12T08:13:01;6.20;;;5.60;;
5125;SDS011;2581;53.112;8.896;2022-07-12T08:15:27;4.00;;;3.80;;
5125;SDS011;2581;53.112;8.896;2022-07-12T08:17:53;4.03;;;3.67;;
5125;SDS011;2581;53.112;8.896;2022-07-12T08:20:19;3.30;;;3.10;;
5125;SDS011;2581;53.112;8.896;2022-07-12T08:22:45;4.70;;;4.40;;
5125;SDS011;2581;53.112;8.896;2022-07-12T08:25:14;4.40;;;3.40;;
5125;SDS011;2581;53.112;8.896;2022-07-12T08:27:40;3.83;;;3.53;;
5125;SDS011;2581;53.112;8.896;2022-07-12T08:30:06;4.60;;;4.30;;
5125;SDS011;2581;53.112;8.896;2022-07-12T08:32:32;3.80;;;3.60;;
5125;SDS011;2581;53.112;8.896;2022-07-12T08:34:57;3.73;;;3.43;;
5125;SDS011;2581;53.112;8.896;2022-07-12T08:37:23;4.27;;;3.87;;
5125;SDS011;2581;53.112;8.896;2022-07-12T08:39:49;4.37;;;3.97;;
5125;SDS011;2581;53.112;8.896;2022-07-12T08:42:16;5.27;;;4.87;;
5125;SDS011;2581;53.112;8.896;2022-07-12T08:44:43;4.30;;;4.00;;
5125;SDS011;2581;53.112;8.896;2022-07-12T08:47:09;4.50;;;4.20;;
5125;SDS011;2581;53.112;8.896;2022-07-12T08:49:36;3.97;;;3.77;;
5125;SDS011;2581;53.112;8.896;2022-07-12T08:52:24;4.13;;;3.83;;
5125;SDS011;2581;53.112;8.896;2022-07-12T08:54:52;3.70;;;3.50;;
5125;SDS011;2581;53.112;8.896;2022-07-12T08:57:31;4.33;;;4.10;;
5125;SDS011;2581;53.112;8.896;2022-07-12T09:00:00;3.90;;;3.70;;
5125;SDS011;2581;53.112;8.896;2022-07-12T09:02:26;5.03;;;3.80;;
5125;SDS011;2581;53.112;8.896;2022-07-12T09:05:05;4.07;;;3.87;;
5125;SDS011;2581;53.112;8.896;2022-07-12T09:07:34;4.77;;;4.57;;
5125;SDS011;2581;53.112;8.896;2022-07-12T09:10:04;4.07;;;3.70;;
5125;SDS011;2581;53.112;8.896;2022-07-12T09:12:32;4.20;;;4.00;;
5125;SDS011;2581;53.112;8.896;2022-07-12T09:18:00;4.77;;;3.80;;
5125;SDS011;2581;53.112;8.896;2022-07-12T09:20:36;5.00;;;4.70;;
5125;SDS011;2581;53.112;8.896;2022-07-12T09:23:09;5.43;;;4.00;;
5125;SDS011;2581;53.112;8.896;2022-07-12T09:25:35;5.37;;;4.90;;
5125;SDS011;2581;53.112;8.896;2022-07-12T09:28:06;4.80;;;4.50;;
5125;SDS011;2581;53.112;8.896;2022-07-12T09:30:33;5.63;;;5.10;;
5125;SDS011;2581;53.112;8.896;2022-07-12T09:38:40;6.87;;;5.87;;
5125;SDS011;2581;53.112;8.896;2022-07-12T09:41:16;6.13;;;5.63;;
5125;SDS011;2581;53.112;8.896;2022-07-12T09:43:42;6.40;;;5.90;;
5125;SDS011;2581;53.112;8.896;2022-07-12T09:46:09;5.50;;;5.10;;
5125;SDS011;2581;53.112;8.896;2022-07-12T09:48:36;6.03;;;5.63;;
5125;SDS011;2581;53.112;8.896;2022-07-12T09:51:02;5.60;;;5.30;;
5125;SDS011;2581;53.112;8.896;2022-07-12T09:53:32;7.33;;;5.60;;
5125;SDS011;2581;53.112;8.896;2022-07-12T09:56:04;5.93;;;5.53;;
5125;SDS011;2581;53.112;8.896;2022-07-12T09:58:38;6.07;;;5.47;;
5125;SDS011;2581;53.112;8.896;2022-07-12T10:01:25;4.83;;;4.53;;
5125;SDS011;2581;53.112;8.896;2022-07-12T10:03:51;4.50;;;4.30;;
5125;SDS011;2581;53.112;8.896;2022-07-12T10:06:23;4.30;;;4.00;;
5125;SDS011;2581;53.112;8.896;2022-07-12T10:08:50;3.87;;;3.67;;
5125;SDS011;2581;53.112;8.896;2022-07-12T10:11:17;5.33;;;3.40;;
5125;SDS011;2581;53.112;8.896;2022-07-12T10:13:44;3.27;;;3.07;;
5125;SDS011;2581;53.112;8.896;2022-07-12T10:16:11;3.27;;;2.97;;
5125;SDS011;2581;53.112;8.896;2022-07-12T10:18:39;2.83;;;2.63;;
5125;SDS011;2581;53.112;8.896;2022-07-12T10:21:18;2.93;;;2.73;;
5125;SDS011;2581;53.112;8.896;2022-07-12T10:23:45;2.53;;;2.43;;
5125;SDS011;2581;53.112;8.896;2022-07-12T10:31:38;4.40;;;1.97;;
5125;SDS011;2581;53.112;8.896;2022-07-12T10:34:24;2.70;;;1.87;;
5125;SDS011;2581;53.112;8.896;2022-07-12T10:39:25;5.67;;;1.60;;
5125;SDS011;2581;53.112;8.896;2022-07-12T10:44:43;1.57;;;1.20;;
5125;SDS011;2581;53.112;8.896;2022-07-12T10:47:10;1.50;;;1.23;;
5125;SDS011;2581;53.112;8.896;2022-07-12T10:49:50;1.07;;;1.07;;
5125;SDS011;2581;53.112;8.896;2022-07-12T10:52:23;1.00;;;0.90;;
5125;SDS011;2581;53.112;8.896;2022-07-12T11:00:05;3.73;;;1.43;;
5125;SDS011;2581;53.112;8.896;2022-07-12T11:02:32;2.07;;;1.20;;
5125;SDS011;2581;53.112;8.896;2022-07-12T11:04:58;2.67;;;1.93;;
5125;SDS011;2581;53.112;8.896;2022-07-12T11:07:24;2.23;;;1.20;;
5125;SDS011;2581;53.112;8.896;2022-07-12T11:09:53;1.33;;;1.23;;
5125;SDS011;2581;53.112;8.896;2022-07-12T11:12:20;1.00;;;1.00;;
5125;SDS011;2581;53.112;8.896;2022-07-12T11:14:52;3.63;;;1.00;;
5125;SDS011;2581;53.112;8.896;2022-07-12T11:17:20;2.87;;;1.60;;
5125;SDS011;2581;53.112;8.896;2022-07-12T11:19:50;1.60;;;1.50;;
5125;SDS011;2581;53.112;8.896;2022-07-12T11:22:36;3.93;;;1.70;;
5125;SDS011;2581;53.112;8.896;2022-07-12T11:25:08;1.53;;;1.43;;
5125;SDS011;2581;53.112;8.896;2022-07-12T11:27:35;2.70;;;1.47;;
5125;SDS011;2581;53.112;8.896;2022-07-12T11:30:02;1.57;;;1.47;;
5125;SDS011;2581;53.112;8.896;2022-07-12T11:32:33;1.30;;;1.20;;
5125;SDS011;2581;53.112;8.896;2022-07-12T11:35:00;1.50;;;1.40;;
5125;SDS011;2581;53.112;8.896;2022-07-12T11:37:25;2.20;;;1.17;;
5125;SDS011;2581;53.112;8.896;2022-07-12T11:39:51;5.73;;;1.50;;
5125;SDS011;2581;53.112;8.896;2022-07-12T11:42:17;2.90;;;1.50;;
5125;SDS011;2581;53.112;8.896;2022-07-12T11:44:43;1.17;;;1.17;;
5125;SDS011;2581;53.112;8.896;2022-07-12T11:47:17;2.90;;;1.60;;
5125;SDS011;2581;53.112;8.896;2022-07-12T11:49:47;4.83;;;1.63;;
5125;SDS011;2581;53.112;8.896;2022-07-12T11:52:19;3.60;;;1.83;;
5125;SDS011;2581;53.112;8.896;2022-07-12T11:54:47;3.13;;;1.80;;
5125;SDS011;2581;53.112;8.896;2022-07-12T11:57:13;5.90;;;1.27;;
5125;SDS011;2581;53.112;8.896;2022-07-12T11:59:40;4.37;;;1.50;;
5125;SDS011;2581;53.112;8.896;2022-07-12T12:02:06;2.20;;;1.20;;
5125;SDS011;2581;53.112;8.896;2022-07-12T12:04:49;2.87;;;1.37;;
5125;SDS011;2581;53.112;8.896;2022-07-12T12:07:17;2.27;;;1.30;;
5125;SDS011;2581;53.112;8.896;2022-07-12T12:15:05;1.30;;;1.27;;
5125;SDS011;2581;53.112;8.896;2022-07-12T12:17:35;1.97;;;1.30;;
5125;SDS011;2581;53.112;8.896;2022-07-12T12:20:08;4.63;;;1.33;;
5125;SDS011;2581;53.112;8.896;2022-07-12T12:22:39;1.57;;;1.47;;
5125;SDS011;2581;53.112;8.896;2022-07-12T12:25:05;1.10;;;1.10;;
5125;SDS011;2581;53.112;8.896;2022-07-12T12:27:40;1.67;;;1.37;;
5125;SDS011;2581;53.112;8.896;2022-07-12T12:30:06;1.63;;;1.20;;
5125;SDS011;2581;53.112;8.896;2022-07-12T12:32:45;1.63;;;1.13;;
5125;SDS011;2581;53.112;8.896;2022-07-12T12:35:12;1.53;;;1.00;;
5125;SDS011;2581;53.112;8.896;2022-07-12T12:37:39;1.53;;;1.43;;
5125;SDS011;2581;53.112;8.896;2022-07-12T12:40:05;2.63;;;1.23;;
5125;SDS011;2581;53.112;8.896;2022-07-12T12:42:31;1.27;;;1.17;;
5125;SDS011;2581;53.112;8.896;2022-07-12T12:44:57;1.73;;;1.20;;
5125;SDS011;2581;53.112;8.896;2022-07-12T12:47:23;1.73;;;1.63;;
5125;SDS011;2581;53.112;8.896;2022-07-12T12:49:59;1.20;;;1.10;;
5125;SDS011;2581;53.112;8.896;2022-07-12T12:52:26;1.17;;;1.17;;
5125;SDS011;2581;53.112;8.896;2022-07-12T12:54:54;1.97;;;1.50;;
5125;SDS011;2581;53.112;8.896;2022-07-12T12:57:20;1.70;;;1.20;;
5125;SDS011;2581;53.112;8.896;2022-07-12T12:59:46;2.30;;;2.10;;
5125;SDS011;2581;53.112;8.896;2022-07-12T13:02:12;4.63;;;1.90;;
5125;SDS011;2581;53.112;8.896;2022-07-12T13:04:38;2.20;;;1.57;;
5125;SDS011;2581;53.112;8.896;2022-07-12T13:07:05;1.57;;;1.47;;
5125;SDS011;2581;53.112;8.896;2022-07-12T13:09:31;9.40;;;2.03;;
5125;SDS011;2581;53.112;8.896;2022-07-12T13:11:58;2.50;;;2.10;;
5125;SDS011;2581;53.112;8.896;2022-07-12T13:14:24;3.47;;;1.70;;
5125;SDS011;2581;53.112;8.896;2022-07-12T13:16:50;2.80;;;2.60;;
5125;SDS011;2581;53.112;8.896;2022-07-12T13:19:16;2.30;;;2.20;;
5125;SDS011;2581;53.112;8.896;2022-07-12T13:21:42;2.20;;;2.10;;
5125;SDS011;2581;53.112;8.896;2022-07-12T13:24:08;5.13;;;2.17;;
5125;SDS011;2581;53.112;8.896;2022-07-12T13:26:33;2.43;;;2.10;;
5125;SDS011;2581;53.112;8.896;2022-07-12T13:28:59;4.97;;;2.60;;
5125;SDS011;2581;53.112;8.896;2022-07-12T13:31:25;2.17;;;1.43;;
5125;SDS011;2581;53.112;8.896;2022-07-12T13:33:51;3.57;;;1.93;;
5125;SDS011;2581;53.112;8.896;2022-07-12T13:36:18;6.93;;;1.80;;
5125;SDS011;2581;53.112;8.896;2022-07-12T13:38:46;2.33;;;1.80;;
5125;SDS011;2581;53.112;8.896;2022-07-12T13:41:12;1.90;;;1.80;;
5125;SDS011;2581;53.112;8.896;2022-07-12T13:43:37;3.57;;;2.07;;
5125;SDS011;2581;53.112;8.896;2022-07-12T13:46:03;1.83;;;1.50;;
5125;SDS011;2581;53.112;8.896;2022-07-12T13:48:30;1.93;;;1.20;;
5125;SDS011;2581;53.112;8.896;2022-07-12T13:50:55;1.30;;;1.20;;
5125;SDS011;2581;53.112;8.896;2022-07-12T13:53:21;2.70;;;1.37;;
5125;SDS011;2581;53.112;8.896;2022-07-12T13:55:47;1.30;;;1.20;;
5125;SDS011;2581;53.112;8.896;2022-07-12T13:58:12;1.40;;;1.30;;
5125;SDS011;2581;53.112;8.896;2022-07-12T14:00:41;2.10;;;1.43;;
5125;SDS011;2581;53.112;8.896;2022-07-12T14:03:07;1.20;;;1.10;;
5125;SDS011;2581;53.112;8.896;2022-07-12T14:05:33;1.63;;;1.40;;
5125;SDS011;2581;53.112;8.896;2022-07-12T14:07:59;1.47;;;1.00;;
5125;SDS011;2581;53.112;8.896;2022-07-12T14:10:25;1.53;;;0.80;;
5125;SDS011;2581;53.112;8.896;2022-07-12T14:12:52;0.83;;;0.83;;
5125;SDS011;2581;53.112;8.896;2022-07-12T14:15:18;0.90;;;0.90;;
5125;SDS011;2581;53.112;8.896;2022-07-12T14:17:48;1.20;;;1.10;;
5125;SDS011;2581;53.112;8.896;2022-07-12T14:20:16;1.47;;;0.87;;
5125;SDS011;2581;53.112;8.896;2022-07-12T14:22:44;0.97;;;0.80;;
5125;SDS011;2581;53.112;8.896;2022-07-12T14:25:10;2.23;;;0.87;;
5125;SDS011;2581;53.112;8.896;2022-07-12T14:27:36;0.83;;;0.80;;
5125;SDS011;2581;53.112;8.896;2022-07-12T14:30:04;14.20;;;1.37;;
5125;SDS011;2581;53.112;8.896;2022-07-12T14:32:32;1.90;;;0.90;;
5125;SDS011;2581;53.112;8.896;2022-07-12T14:34:57;2.60;;;0.83;;
5125;SDS011;2581;53.112;8.896;2022-07-12T14:37:23;1.13;;;0.80;;
5125;SDS011;2581;53.112;8.896;2022-07-12T14:39:49;5.40;;;1.10;;
5125;SDS011;2581;53.112;8.896;2022-07-12T14:42:15;0.93;;;0.77;;
5125;SDS011;2581;53.112;8.896;2022-07-12T14:44:40;0.87;;;0.87;;
5125;SDS011;2581;53.112;8.896;2022-07-12T14:47:07;0.63;;;0.63;;
5125;SDS011;2581;53.112;8.896;2022-07-12T14:49:33;0.60;;;0.60;;
5125;SDS011;2581;53.112;8.896;2022-07-12T14:51:59;2.77;;;0.90;;
5125;SDS011;2581;53.112;8.896;2022-07-12T14:54:25;0.93;;;0.80;;
5125;SDS011;2581;53.112;8.896;2022-07-12T14:56:51;0.70;;;0.70;;
5125;SDS011;2581;53.112;8.896;2022-07-12T14:59:17;0.70;;;0.70;;
5125;SDS011;2581;53.112;8.896;2022-07-12T15:01:42;0.43;;;0.43;;
5125;SDS011;2581;53.112;8.896;2022-07-12T15:04:08;1.93;;;0.80;;
5125;SDS011;2581;53.112;8.896;2022-07-12T15:06:34;2.37;;;0.90;;
5125;SDS011;2581;53.112;8.896;2022-07-12T15:09:00;0.50;;;0.50;;
5125;SDS011;2581;53.112;8.896;2022-07-12T15:11:25;0.90;;;0.80;;
5125;SDS011;2581;53.112;8.896;2022-07-12T15:13:51;3.03;;;0.80;;
5125;SDS011;2581;53.112;8.896;2022-07-12T15:16:17;2.07;;;0.53;;
5125;SDS011;2581;53.112;8.896;2022-07-12T15:18:43;0.80;;;0.80;;
5125;SDS011;2581;53.112;8.896;2022-07-12T15:21:09;1.03;;;0.60;;
5125;SDS011;2581;53.112;8.896;2022-07-12T15:23:34;0.40;;;0.40;;
5125;SDS011;2581;53.112;8.896;2022-07-12T15:26:01;0.50;;;0.50;;
5125;SDS011;2581;53.112;8.896;2022-07-12T15:28:27;0.50;;;0.50;;
5125;SDS011;2581;53.112;8.896;2022-07-12T15:30:54;5.60;;;0.70;;
5125;SDS011;2581;53.112;8.896;2022-07-12T15:33:20;0.50;;;0.47;;
5125;SDS011;2581;53.112;8.896;2022-07-12T15:35:47;0.60;;;0.50;;
5125;SDS011;2581;53.112;8.896;2022-07-12T15:38:13;0.60;;;0.60;;
5125;SDS011;2581;53.112;8.896;2022-07-12T15:40:39;0.60;;;0.60;;
5125;SDS011;2581;53.112;8.896;2022-07-12T15:43:05;0.40;;;0.40;;
5125;SDS011;2581;53.112;8.896;2022-07-12T15:45:30;0.50;;;0.50;;